createdAt,value
2018-11-26T00:00:22.436Z,986.86
2018-11-26T00:01:31.961Z,986.84
2018-11-26T00:02:41.797Z,986.84
2018-11-26T00:03:51.626Z,986.84
2018-11-26T00:05:01.758Z,986.8
2018-11-26T00:06:11.893Z,986.76
2018-11-26T00:07:21.725Z,986.75
2018-11-26T00:08:31.605Z,986.77
2018-11-26T00:09:41.440Z,986.75
2018-11-26T00:10:51.284Z,986.77
2018-11-26T00:12:01.897Z,986.72
2018-11-26T00:13:11.747Z,986.75
2018-11-26T00:14:21.584Z,986.72
2018-11-26T00:15:31.400Z,986.66
2018-11-26T00:16:41.236Z,986.67
2018-11-26T00:17:50.800Z,986.64
2018-11-26T00:19:00.447Z,986.66
2018-11-26T00:20:10.328Z,986.62
2018-11-26T00:21:19.986Z,986.62
2018-11-26T00:22:30.083Z,986.63
2018-11-26T00:23:40.606Z,986.59
2018-11-26T00:24:50.494Z,986.58
2018-11-26T00:26:00.718Z,986.59
2018-11-26T00:27:10.776Z,986.6
2018-11-26T00:28:20.691Z,986.57
2018-11-26T00:29:30.559Z,986.58
2018-11-26T00:30:41.151Z,986.52
2018-11-26T00:31:51.228Z,986.5
2018-11-26T00:33:00.985Z,986.47
2018-11-26T00:34:11.278Z,986.46
2018-11-26T00:35:21.321Z,986.46
2018-11-26T00:36:30.888Z,986.45
2018-11-26T00:37:41.017Z,986.45
2018-11-26T00:38:51.099Z,986.4
2018-11-26T00:40:05.007Z,986.44
2018-11-26T00:41:14.838Z,986.41
2018-11-26T00:42:24.950Z,986.43
2018-11-26T00:43:34.768Z,986.42
2018-11-26T00:44:44.345Z,986.38
2018-11-26T00:45:54.209Z,986.4
2018-11-26T00:47:04.012Z,986.42
2018-11-26T00:48:13.562Z,986.36
2018-11-26T00:49:23.374Z,986.37
2018-11-26T00:50:33.452Z,986.34
2018-11-26T00:51:42.833Z,986.3
2018-11-26T00:52:52.901Z,986.32
2018-11-26T00:54:02.993Z,986.32
2018-11-26T00:55:13.139Z,986.26
2018-11-26T00:56:23.197Z,986.29
2018-11-26T00:57:33.028Z,986.28
2018-11-26T00:58:43.089Z,986.3
2018-11-26T00:59:53.172Z,986.26
2018-11-26T01:01:03.025Z,986.28
2018-11-26T01:02:13.103Z,986.26
2018-11-26T01:03:23.158Z,986.25
2018-11-26T01:04:32.980Z,986.24
2018-11-26T01:05:43.065Z,986.22
2018-11-26T01:06:53.221Z,986.22
2018-11-26T01:08:03.384Z,986.19
2018-11-26T01:09:13.256Z,986.16
2018-11-26T01:10:23.361Z,986.17
2018-11-26T01:11:33.461Z,986.13
2018-11-26T01:12:43.386Z,986.13
2018-11-26T01:13:53.474Z,986.12
2018-11-26T01:15:04.195Z,986.1
2018-11-26T01:16:14.008Z,986.09
2018-11-26T01:17:23.319Z,986.07
2018-11-26T01:18:33.132Z,986.08
2018-11-26T01:19:42.966Z,986.07
2018-11-26T01:20:52.581Z,986.07
2018-11-26T01:22:02.255Z,986.09
2018-11-26T01:23:12.297Z,986.05
2018-11-26T01:24:21.864Z,986.08
2018-11-26T01:25:31.956Z,986.02
2018-11-26T01:26:42.045Z,985.96
2018-11-26T01:27:51.859Z,985.98
2018-11-26T01:29:02.862Z,985.98
2018-11-26T01:30:12.492Z,985.91
2018-11-26T01:31:22.308Z,985.88
2018-11-26T01:32:32.381Z,985.89
2018-11-26T01:33:42.455Z,985.91
2018-11-26T01:34:52.294Z,985.87
2018-11-26T01:36:02.121Z,985.91
2018-11-26T01:37:11.953Z,985.87
2018-11-26T01:38:22.007Z,985.85
2018-11-26T01:39:31.305Z,985.82
2018-11-26T01:40:41.817Z,985.79
2018-11-26T01:41:51.910Z,985.84
2018-11-26T01:43:01.984Z,985.82
2018-11-26T01:44:11.799Z,985.83
2018-11-26T01:45:21.912Z,985.81
2018-11-26T01:46:31.751Z,985.77
2018-11-26T01:47:41.822Z,985.74
2018-11-26T01:48:51.646Z,985.79
2018-11-26T01:50:01.816Z,985.77
2018-11-26T01:51:11.644Z,985.73
2018-11-26T01:52:21.472Z,985.75
2018-11-26T01:53:31.590Z,985.7
2018-11-26T01:54:41.419Z,985.68
2018-11-26T01:55:51.261Z,985.67
2018-11-26T01:57:02.811Z,985.64
2018-11-26T01:58:12.891Z,985.66
2018-11-26T01:59:22.976Z,985.59
2018-11-26T02:00:33.044Z,985.65
2018-11-26T02:01:42.862Z,985.57
2018-11-26T02:02:52.466Z,985.6
2018-11-26T02:04:02.409Z,985.61
2018-11-26T02:05:13.195Z,985.57
2018-11-26T02:06:23.264Z,985.56
2018-11-26T02:07:33.195Z,985.54
2018-11-26T02:08:43.269Z,985.53
2018-11-26T02:09:53.085Z,985.49
2018-11-26T02:11:03.408Z,985.47
2018-11-26T02:12:13.598Z,985.46
2018-11-26T02:13:23.693Z,985.44
2018-11-26T02:14:33.292Z,985.44
2018-11-26T02:15:43.597Z,985.41
2018-11-26T02:16:53.723Z,985.38
2018-11-26T02:18:03.822Z,985.39
2018-11-26T02:19:13.898Z,985.39
2018-11-26T02:20:24.211Z,985.38
2018-11-26T02:21:33.793Z,985.37
2018-11-26T02:22:43.867Z,985.37
2018-11-26T02:23:53.183Z,985.36
2018-11-26T02:25:03.262Z,985.37
2018-11-26T02:26:13.456Z,985.37
2018-11-26T02:27:23.537Z,985.35
2018-11-26T02:28:33.697Z,985.32
2018-11-26T02:29:43.767Z,985.33
2018-11-26T02:30:53.832Z,985.32
2018-11-26T02:32:03.669Z,985.28
2018-11-26T02:33:13.775Z,985.36
2018-11-26T02:34:23.914Z,985.34
2018-11-26T02:35:33.987Z,985.31
2018-11-26T02:36:44.091Z,985.31
2018-11-26T02:37:53.934Z,985.27
2018-11-26T02:39:03.765Z,985.27
2018-11-26T02:40:13.831Z,985.24
2018-11-26T02:41:23.912Z,985.23
2018-11-26T02:42:33.989Z,985.21
2018-11-26T02:43:43.795Z,985.16
2018-11-26T02:44:53.638Z,985.17
2018-11-26T02:46:03.475Z,985.13
2018-11-26T02:47:13.579Z,985.15
2018-11-26T02:48:23.675Z,985.16
2018-11-26T02:49:33.804Z,985.14
2018-11-26T02:50:43.879Z,985.12
2018-11-26T02:51:53.712Z,985.12
2018-11-26T02:53:03.571Z,985.09
2018-11-26T02:54:13.392Z,985.13
2018-11-26T02:55:23.468Z,985.13
2018-11-26T02:56:33.975Z,985.09
2018-11-26T02:57:44.138Z,985.09
2018-11-26T02:58:54.244Z,985.09
2018-11-26T03:00:04.367Z,985.06
2018-11-26T03:01:14.233Z,985.1
2018-11-26T03:02:24.319Z,985.08
2018-11-26T03:03:34.440Z,985.03
2018-11-26T03:35:17.331Z,984.95
2018-11-26T03:36:27.396Z,984.89
2018-11-26T03:37:37.240Z,984.95
2018-11-26T03:38:47.817Z,984.98
2018-11-26T03:39:57.635Z,984.96
2018-11-26T03:41:07.734Z,984.92
2018-11-26T03:42:17.912Z,984.96
2018-11-26T03:43:28.206Z,984.92
2018-11-26T03:44:38.023Z,984.85
2018-11-26T03:45:47.845Z,984.87
2018-11-26T03:46:57.766Z,984.86
2018-11-26T03:48:07.580Z,984.83
2018-11-26T03:49:17.180Z,984.83
2018-11-26T03:50:27.082Z,984.83
2018-11-26T03:51:36.674Z,984.84
2018-11-26T03:52:46.831Z,984.84
2018-11-26T03:53:56.931Z,984.83
2018-11-26T03:55:07.015Z,984.83
2018-11-26T03:56:16.896Z,984.82
2018-11-26T03:57:27.009Z,984.85
2018-11-26T03:58:37.147Z,984.86
2018-11-26T03:59:47.221Z,984.84
2018-11-26T04:00:57.310Z,984.88
2018-11-26T04:02:06.876Z,984.8
2018-11-26T04:03:16.932Z,984.82
2018-11-26T04:04:26.862Z,984.77
2018-11-26T04:05:36.697Z,984.79
2018-11-26T04:06:46.521Z,984.83
2018-11-26T04:07:56.608Z,984.73
2018-11-26T04:09:07.765Z,984.76
2018-11-26T04:10:17.595Z,984.82
2018-11-26T04:11:27.425Z,984.77
2018-11-26T04:12:37.514Z,984.75
2018-11-26T04:13:47.385Z,984.75
2018-11-26T04:14:57.443Z,984.71
2018-11-26T04:16:07.321Z,984.71
2018-11-26T04:17:17.416Z,984.67
2018-11-26T04:18:27.500Z,984.67
2018-11-26T04:19:37.598Z,984.67
2018-11-26T04:20:47.696Z,984.66
2018-11-26T04:21:57.278Z,984.66
2018-11-26T04:23:07.424Z,984.63
2018-11-26T04:24:17.492Z,984.63
2018-11-26T04:25:27.312Z,984.61
2018-11-26T04:26:39.126Z,984.63
2018-11-26T04:27:48.693Z,984.61
2018-11-26T04:28:58.266Z,984.64
2018-11-26T04:30:09.869Z,984.6
2018-11-26T04:31:19.705Z,984.59
2018-11-26T04:32:29.546Z,984.62
2018-11-26T04:33:39.390Z,984.61
2018-11-26T04:34:49.209Z,984.59
2018-11-26T04:35:59.025Z,984.59
2018-11-26T04:37:08.941Z,984.58
2018-11-26T04:38:18.988Z,984.59
2018-11-26T04:39:28.900Z,984.59
2018-11-26T04:40:38.727Z,984.57
2018-11-26T04:41:48.798Z,984.52
2018-11-26T04:42:58.894Z,984.54
2018-11-26T04:44:08.714Z,984.53
2018-11-26T04:45:18.817Z,984.51
2018-11-26T04:46:28.943Z,984.53
2018-11-26T04:47:38.772Z,984.52
2018-11-26T04:48:48.629Z,984.52
2018-11-26T04:49:58.203Z,984.51
2018-11-26T04:51:08.041Z,984.52
2018-11-26T04:52:18.110Z,984.51
2018-11-26T04:53:28.372Z,984.48
2018-11-26T04:54:38.195Z,984.49
2018-11-26T04:55:48.030Z,984.47
2018-11-26T04:56:58.261Z,984.47
2018-11-26T04:58:10.352Z,984.47
2018-11-26T04:59:20.732Z,984.49
2018-11-26T05:00:30.809Z,984.47
2018-11-26T05:01:40.842Z,984.44
2018-11-26T05:02:50.719Z,984.46
2018-11-26T05:04:00.035Z,984.43
2018-11-26T05:05:09.858Z,984.44
2018-11-26T05:06:19.696Z,984.41
2018-11-26T05:07:29.254Z,984.42
2018-11-26T05:08:39.443Z,984.42
2018-11-26T05:09:49.376Z,984.44
2018-11-26T05:10:59.502Z,984.46
2018-11-26T05:12:09.586Z,984.41
2018-11-26T05:13:19.406Z,984.43
2018-11-26T05:14:29.228Z,984.4
2018-11-26T05:15:39.285Z,984.48
2018-11-26T05:16:48.695Z,984.45
2018-11-26T05:17:58.771Z,984.44
2018-11-26T05:19:09.308Z,984.46
2018-11-26T05:20:19.497Z,984.42
2018-11-26T05:21:29.302Z,984.48
2018-11-26T05:22:39.122Z,984.45
2018-11-26T05:23:49.046Z,984.48
2018-11-26T05:24:58.874Z,984.47
2018-11-26T05:26:09.020Z,984.46
2018-11-26T05:27:19.104Z,984.48
2018-11-26T05:28:28.916Z,984.48
2018-11-26T05:29:38.773Z,984.43
2018-11-26T05:30:48.651Z,984.44
2018-11-26T05:31:58.521Z,984.46
2018-11-26T05:33:10.613Z,984.42
2018-11-26T05:34:20.593Z,984.44
2018-11-26T05:35:30.175Z,984.4
2018-11-26T05:36:39.990Z,984.45
2018-11-26T05:37:50.090Z,984.4
2018-11-26T05:38:59.675Z,984.38
2018-11-26T05:40:09.855Z,984.39
2018-11-26T05:41:19.730Z,984.36
2018-11-26T05:42:29.851Z,984.36
2018-11-26T05:43:39.419Z,984.34
2018-11-26T05:44:49.237Z,984.37
2018-11-26T05:45:59.308Z,984.37
2018-11-26T05:47:09.124Z,984.36
2018-11-26T05:48:19.200Z,984.34
2018-11-26T05:49:29.389Z,984.29
2018-11-26T05:50:39.471Z,984.3
2018-11-26T05:51:49.318Z,984.31
2018-11-26T05:52:59.187Z,984.36
2018-11-26T05:54:09.580Z,984.34
2018-11-26T05:55:19.662Z,984.34
2018-11-26T05:56:29.695Z,984.34
2018-11-26T05:57:39.517Z,984.34
2018-11-26T05:58:49.606Z,984.35
2018-11-26T05:59:59.687Z,984.35
2018-11-26T06:01:11.455Z,984.35
2018-11-26T06:02:21.520Z,984.3
2018-11-26T06:03:31.352Z,984.32
2018-11-26T06:04:40.902Z,984.32
2018-11-26T06:05:50.970Z,984.33
2018-11-26T06:07:00.531Z,984.29
2018-11-26T06:08:10.363Z,984.32
2018-11-26T06:09:20.433Z,984.3
2018-11-26T06:10:30.303Z,984.31
2018-11-26T06:11:40.130Z,984.31
2018-11-26T06:12:49.749Z,984.31
2018-11-26T06:13:59.839Z,984.3
2018-11-26T06:15:09.445Z,984.31
2018-11-26T06:16:19.545Z,984.29
2018-11-26T06:17:29.640Z,984.31
2018-11-26T06:18:39.502Z,984.27
2018-11-26T06:19:49.375Z,984.28
2018-11-26T06:20:59.190Z,984.28
2018-11-26T06:22:09.298Z,984.3
2018-11-26T06:23:19.369Z,984.28
2018-11-26T06:24:29.175Z,984.24
2018-11-26T06:25:39.243Z,984.24
2018-11-26T06:26:48.553Z,984.25
2018-11-26T06:27:59.431Z,984.23
2018-11-26T06:29:09.078Z,984.22
2018-11-26T06:30:18.657Z,984.22
2018-11-26T06:31:28.587Z,984.25
2018-11-26T06:32:38.633Z,984.28
2018-11-26T06:33:48.729Z,984.22
2018-11-26T06:34:58.796Z,984.21
2018-11-26T06:36:08.868Z,984.25
2018-11-26T06:37:18.659Z,984.22
2018-11-26T06:38:28.671Z,984.26
2018-11-26T06:39:38.738Z,984.25
2018-11-26T06:40:48.805Z,984.26
2018-11-26T06:41:58.879Z,984.31
2018-11-26T06:43:08.963Z,984.28
2018-11-26T06:44:18.792Z,984.33
2018-11-26T06:45:28.358Z,984.34
2018-11-26T06:46:38.444Z,984.33
2018-11-26T06:47:48.350Z,984.32
2018-11-26T06:48:58.483Z,984.35
2018-11-26T06:50:10.624Z,984.36
2018-11-26T06:51:20.443Z,984.35
2018-11-26T06:52:30.253Z,984.34
2018-11-26T06:53:40.365Z,984.41
2018-11-26T06:54:50.462Z,984.41
2018-11-26T06:56:00.567Z,984.43
2018-11-26T06:57:10.388Z,984.39
2018-11-26T06:58:20.482Z,984.42
2018-11-26T06:59:30.362Z,984.46
2018-11-26T07:00:40.702Z,984.44
2018-11-26T07:01:50.281Z,984.45
2018-11-26T07:03:00.592Z,984.46
2018-11-26T07:04:10.159Z,984.49
2018-11-26T07:05:20.301Z,984.48
2018-11-26T07:06:30.379Z,984.47
2018-11-26T07:07:40.195Z,984.43
2018-11-26T07:08:49.744Z,984.47
2018-11-26T07:09:59.331Z,984.47
2018-11-26T07:11:09.375Z,984.46
2018-11-26T07:12:18.697Z,984.45
2018-11-26T07:13:28.032Z,984.51
2018-11-26T07:14:37.841Z,984.47
2018-11-26T07:15:47.459Z,984.5
2018-11-26T07:16:57.361Z,984.5
2018-11-26T07:18:07.438Z,984.55
2018-11-26T07:19:17.523Z,984.49
2018-11-26T07:20:27.604Z,984.52
2018-11-26T07:21:37.435Z,984.52
2018-11-26T07:22:47.248Z,984.51
2018-11-26T07:23:57.130Z,984.52
2018-11-26T07:25:06.688Z,984.5
2018-11-26T07:26:16.522Z,984.53
2018-11-26T07:27:26.594Z,984.51
2018-11-26T07:28:36.676Z,984.52
2018-11-26T07:29:46.754Z,984.52
2018-11-26T07:30:56.305Z,984.51
2018-11-26T07:32:07.291Z,984.52
2018-11-26T07:33:18.268Z,984.53
2018-11-26T07:34:28.213Z,984.51
2018-11-26T07:35:38.298Z,984.54
2018-11-26T07:36:48.136Z,984.49
2018-11-26T07:37:58.202Z,984.49
2018-11-26T07:39:08.436Z,984.49
2018-11-26T07:40:18.324Z,984.51
2018-11-26T07:41:28.157Z,984.47
2018-11-26T07:42:37.962Z,984.46
2018-11-26T07:43:48.242Z,984.48
2018-11-26T07:44:57.806Z,984.48
2018-11-26T07:46:07.175Z,984.47
2018-11-26T07:47:17.260Z,984.48
2018-11-26T07:48:27.335Z,984.48
2018-11-26T07:49:37.691Z,984.49
2018-11-26T07:50:47.756Z,984.43
2018-11-26T07:51:57.840Z,984.53
2018-11-26T07:53:07.675Z,984.51
2018-11-26T07:54:17.498Z,984.55
2018-11-26T07:55:27.598Z,984.53
2018-11-26T07:56:37.632Z,984.51
2018-11-26T07:57:47.453Z,984.54
2018-11-26T07:58:57.580Z,984.5
2018-11-26T08:00:08.305Z,984.52
2018-11-26T08:01:18.172Z,984.52
2018-11-26T08:02:28.006Z,984.5
2018-11-26T08:03:38.094Z,984.54
2018-11-26T08:04:47.648Z,984.54
2018-11-26T08:05:57.748Z,984.5
2018-11-26T08:07:14.143Z,984.54
2018-11-26T08:08:24.070Z,984.5
2018-11-26T08:09:33.886Z,984.48
2018-11-26T08:10:44.191Z,984.48
2018-11-26T08:11:53.748Z,984.47
2018-11-26T08:13:03.566Z,984.51
2018-11-26T08:14:13.129Z,984.47
2018-11-26T08:15:23.454Z,984.49
2018-11-26T08:16:33.540Z,984.46
2018-11-26T08:17:43.615Z,984.48
2018-11-26T08:18:53.699Z,984.49
2018-11-26T08:20:04.025Z,984.49
2018-11-26T08:21:13.867Z,984.49
2018-11-26T08:22:23.951Z,984.51
2018-11-26T08:23:34.223Z,984.52
2018-11-26T08:24:44.038Z,984.54
2018-11-26T08:25:53.826Z,984.58
2018-11-26T08:27:05.346Z,984.62
2018-11-26T08:28:15.189Z,984.61
2018-11-26T08:29:25.048Z,984.61
2018-11-26T08:30:35.113Z,984.67
2018-11-26T08:31:44.928Z,984.65
2018-11-26T08:32:54.581Z,984.69
2018-11-26T08:34:05.364Z,984.69
2018-11-26T08:35:15.767Z,984.7
2018-11-26T08:36:25.903Z,984.72
2018-11-26T08:37:35.486Z,984.73
2018-11-26T08:38:45.562Z,984.74
2018-11-26T08:39:55.680Z,984.78
2018-11-26T08:41:08.494Z,984.77
2018-11-26T08:42:18.322Z,984.77
2018-11-26T08:43:28.199Z,984.79
2018-11-26T08:44:38.317Z,984.84
2018-11-26T08:45:47.886Z,984.82
2018-11-26T08:46:57.743Z,984.82
2018-11-26T08:48:07.557Z,984.81
2018-11-26T08:49:17.467Z,984.87
2018-11-26T08:50:27.527Z,984.88
2018-11-26T08:51:36.910Z,984.78
2018-11-26T08:52:46.728Z,984.79
2018-11-26T08:53:56.823Z,984.81
2018-11-26T08:55:06.924Z,984.77
2018-11-26T08:56:17.812Z,984.75
2018-11-26T08:57:27.811Z,984.76
2018-11-26T08:58:37.690Z,984.78
2018-11-26T08:59:47.516Z,984.76
2018-11-26T09:00:57.635Z,984.84
2018-11-26T09:02:07.760Z,984.84
2018-11-26T09:03:17.573Z,984.87
2018-11-26T09:04:27.408Z,984.91
2018-11-26T09:05:37.442Z,984.91
2018-11-26T09:06:47.480Z,984.89
2018-11-26T09:07:57.366Z,984.89
2018-11-26T09:09:06.922Z,984.91
2018-11-26T09:10:17.075Z,984.94
2018-11-26T09:11:27.190Z,984.96
2018-11-26T09:12:37.020Z,984.93
2018-11-26T09:13:47.157Z,984.94
2018-11-26T09:14:56.918Z,984.96
2018-11-26T09:16:08.390Z,985
2018-11-26T09:17:18.498Z,984.95
2018-11-26T09:18:28.330Z,985.01
2018-11-26T09:19:38.460Z,984.99
2018-11-26T09:20:48.532Z,984.98
2018-11-26T09:21:58.608Z,985.01
2018-11-26T09:23:08.440Z,984.97
2018-11-26T09:24:18.525Z,985.02
2018-11-26T09:25:28.326Z,984.98
2018-11-26T09:26:38.278Z,985.01
2018-11-26T09:27:48.089Z,985.03
2018-11-26T09:28:58.654Z,984.96
2018-11-26T09:30:08.973Z,984.97
2018-11-26T09:31:18.804Z,984.92
2018-11-26T09:32:28.623Z,984.94
2018-11-26T09:33:37.950Z,984.92
2018-11-26T09:34:47.783Z,984.95
2018-11-26T09:35:57.916Z,984.92
2018-11-26T09:37:08.085Z,984.95
2018-11-26T09:38:18.157Z,984.84
2018-11-26T09:39:27.738Z,984.92
2018-11-26T09:40:37.810Z,984.91
2018-11-26T09:41:47.908Z,984.9
2018-11-26T09:42:57.795Z,984.91
2018-11-26T09:44:07.979Z,984.88
2018-11-26T09:45:18.053Z,984.86
2018-11-26T09:46:28.123Z,984.89
2018-11-26T09:47:38.236Z,984.89
2018-11-26T09:48:48.192Z,984.89
2018-11-26T09:49:58.084Z,984.92
2018-11-26T09:51:14.080Z,984.86
2018-11-26T09:52:24.189Z,984.85
2018-11-26T09:53:34.292Z,984.86
2018-11-26T09:54:43.833Z,984.86
2018-11-26T09:55:53.648Z,984.81
2018-11-26T09:57:03.702Z,984.77
2018-11-26T09:58:13.507Z,984.81
2018-11-26T09:59:23.570Z,984.81
2018-11-26T10:00:33.686Z,984.84
2018-11-26T10:01:43.499Z,984.8
2018-11-26T10:02:53.303Z,984.83
2018-11-26T10:04:02.957Z,984.8
2018-11-26T10:05:12.773Z,984.8
2018-11-26T10:06:22.852Z,984.84
2018-11-26T10:07:32.655Z,984.81
2018-11-26T10:08:42.708Z,984.77
2018-11-26T10:09:52.254Z,984.75
2018-11-26T10:11:02.407Z,984.8
2018-11-26T10:12:12.468Z,984.82
2018-11-26T10:13:22.297Z,984.83
2018-11-26T10:14:32.117Z,984.82
2018-11-26T10:15:41.983Z,984.81
2018-11-26T10:16:51.854Z,984.86
2018-11-26T10:18:03.701Z,984.84
2018-11-26T10:19:13.522Z,984.82
2018-11-26T10:20:23.367Z,984.87
2018-11-26T10:21:33.188Z,984.84
2018-11-26T10:22:42.995Z,984.86
2018-11-26T10:23:52.804Z,984.86
2018-11-26T10:25:05.860Z,984.84
2018-11-26T10:26:15.955Z,984.86
2018-11-26T10:27:25.506Z,984.81
2018-11-26T10:28:35.051Z,984.84
2018-11-26T10:29:44.910Z,984.85
2018-11-26T10:30:54.993Z,984.84
2018-11-26T10:32:04.818Z,984.86
2018-11-26T10:33:15.169Z,984.88
2018-11-26T10:34:25.297Z,984.86
2018-11-26T10:35:35.114Z,984.87
2018-11-26T10:36:44.940Z,984.87
2018-11-26T10:37:55.071Z,984.88
2018-11-26T10:39:04.398Z,984.85
2018-11-26T10:40:14.211Z,984.89
2018-11-26T10:41:23.522Z,984.87
2018-11-26T10:42:33.604Z,984.87
2018-11-26T10:43:43.409Z,984.85
2018-11-26T10:44:53.235Z,984.9
2018-11-26T10:46:03.192Z,984.91
2018-11-26T10:47:13.056Z,984.92
2018-11-26T10:48:22.861Z,984.89
2018-11-26T10:49:32.682Z,984.92
2018-11-26T10:50:41.988Z,984.91
2018-11-26T10:51:52.075Z,984.95
2018-11-26T10:53:02.163Z,984.91
2018-11-26T10:54:12.249Z,984.91
2018-11-26T10:55:21.557Z,984.93
2018-11-26T10:56:31.644Z,984.97
2018-11-26T10:57:41.223Z,985.01
2018-11-26T10:58:50.792Z,985.02
2018-11-26T11:00:03.804Z,984.99
2018-11-26T11:01:13.616Z,985.03
2018-11-26T11:02:23.680Z,984.97
2018-11-26T11:03:33.514Z,985.02
2018-11-26T11:04:47.556Z,984.91
2018-11-26T11:05:57.573Z,984.99
2018-11-26T11:07:07.385Z,984.92
2018-11-26T11:08:16.945Z,984.95
2018-11-26T11:09:27.020Z,984.93
2018-11-26T11:10:36.900Z,984.96
2018-11-26T11:11:46.983Z,984.89
2018-11-26T11:12:57.073Z,984.9
2018-11-26T11:14:06.662Z,984.84
2018-11-26T11:15:16.732Z,984.87
2018-11-26T11:16:26.876Z,984.89
2018-11-26T11:17:36.827Z,984.89
2018-11-26T11:18:46.893Z,984.91
2018-11-26T11:19:56.439Z,984.9
2018-11-26T11:21:06.264Z,984.88
2018-11-26T11:22:16.772Z,984.94
2018-11-26T11:23:26.597Z,984.95
2018-11-26T11:24:36.662Z,984.96
2018-11-26T11:25:46.231Z,984.94
2018-11-26T11:26:56.303Z,985
2018-11-26T11:28:06.158Z,984.99
2018-11-26T11:29:16.339Z,984.95
2018-11-26T11:30:26.434Z,984.92
2018-11-26T11:31:36.496Z,985.01
2018-11-26T11:32:46.556Z,984.99
2018-11-26T11:33:56.898Z,984.98
2018-11-26T11:35:07.011Z,984.99
2018-11-26T11:36:17.066Z,984.95
2018-11-26T11:37:27.137Z,984.97
2018-11-26T11:38:37.000Z,984.95
2018-11-26T11:39:47.163Z,984.95
2018-11-26T11:40:56.962Z,984.9
2018-11-26T11:42:06.782Z,984.95
2018-11-26T11:43:16.878Z,984.9
2018-11-26T11:44:26.922Z,984.85
2018-11-26T11:45:36.980Z,984.85
2018-11-26T11:46:47.034Z,984.88
2018-11-26T11:47:57.080Z,984.9
2018-11-26T11:49:07.245Z,984.87
2018-11-26T11:50:17.280Z,984.92
2018-11-26T11:51:26.861Z,984.91
2018-11-26T11:52:36.926Z,984.92
2018-11-26T11:53:46.981Z,984.88
2018-11-26T11:54:56.763Z,984.9
2018-11-26T11:56:06.837Z,984.81
2018-11-26T11:57:16.883Z,984.84
2018-11-26T11:58:26.941Z,984.84
2018-11-26T11:59:37.049Z,984.85
2018-11-26T12:00:46.847Z,984.87
2018-11-26T12:01:56.910Z,984.85
2018-11-26T12:03:07.017Z,984.84
2018-11-26T12:04:16.846Z,984.87
2018-11-26T12:05:26.913Z,984.82
2018-11-26T12:06:36.713Z,984.86
2018-11-26T12:07:46.503Z,984.91
2018-11-26T12:08:56.322Z,984.85
2018-11-26T12:10:06.364Z,984.87
2018-11-26T12:11:16.319Z,984.9
2018-11-26T12:12:26.426Z,984.95
2018-11-26T12:13:36.481Z,984.94
2018-11-26T12:14:46.283Z,984.95
2018-11-26T12:15:56.086Z,984.97
2018-11-26T12:17:06.649Z,984.95
2018-11-26T12:18:16.731Z,984.92
2018-11-26T12:19:26.836Z,984.94
2018-11-26T12:20:36.938Z,984.96
2018-11-26T12:21:47.388Z,984.97
2018-11-26T12:22:57.575Z,984.95
2018-11-26T12:24:07.648Z,984.98
2018-11-26T12:25:17.735Z,985
2018-11-26T12:26:27.825Z,984.97
2018-11-26T12:27:38.204Z,985.01
2018-11-26T12:28:48.913Z,984.98
2018-11-26T12:29:59.545Z,985.03
2018-11-26T12:31:09.792Z,984.96
2018-11-26T12:32:20.072Z,985.01
2018-11-26T12:33:30.145Z,985.02
2018-11-26T12:34:40.422Z,985
2018-11-26T12:35:50.253Z,985.04
2018-11-26T12:37:00.289Z,985.05
2018-11-26T12:38:10.406Z,985.08
2018-11-26T12:39:20.531Z,985.03
2018-11-26T12:40:30.774Z,985.05
2018-11-26T12:41:40.897Z,985.07
2018-11-26T12:42:50.714Z,985.15
2018-11-26T12:44:03.172Z,985.12
2018-11-26T12:45:13.242Z,985.19
2018-11-26T12:46:23.312Z,985.03
2018-11-26T12:47:33.428Z,985.13
2018-11-26T12:48:43.511Z,985.14
2018-11-26T12:49:53.681Z,985.12
2018-11-26T12:51:03.750Z,985.13
2018-11-26T12:52:13.829Z,985.14
2018-11-26T12:53:23.903Z,985.11
2018-11-26T12:54:34.075Z,985.14
2018-11-26T12:55:44.187Z,985.09
2018-11-26T12:56:54.738Z,985.13
2018-11-26T12:58:04.807Z,985.12
2018-11-26T12:59:14.931Z,985.15
2018-11-26T13:00:25.009Z,985.18
2018-11-26T13:01:35.146Z,985.19
2018-11-26T13:02:45.234Z,985.14
2018-11-26T13:03:55.349Z,985.13
2018-11-26T13:05:05.438Z,985.17
2018-11-26T13:06:15.246Z,985.16
2018-11-26T13:07:25.445Z,985.15
2018-11-26T13:08:35.049Z,985.14
2018-11-26T13:09:44.954Z,985.13
2018-11-26T13:10:54.511Z,985.13
2018-11-26T13:12:04.583Z,985.14
2018-11-26T13:13:14.679Z,985.17
2018-11-26T13:14:24.773Z,985.13
2018-11-26T13:15:34.839Z,985.19
2018-11-26T13:16:45.047Z,985.23
2018-11-26T13:17:54.858Z,985.16
2018-11-26T13:19:04.993Z,985.18
2018-11-26T13:20:15.078Z,985.21
2018-11-26T13:21:25.148Z,985.2
2018-11-26T13:22:35.233Z,985.19
2018-11-26T13:23:44.782Z,985.21
2018-11-26T13:24:54.855Z,985.2
2018-11-26T13:26:04.945Z,985.19
2018-11-26T13:27:15.079Z,985.2
2018-11-26T13:28:24.893Z,985.17
2018-11-26T13:29:34.692Z,985.21
2018-11-26T13:30:44.576Z,985.28
2018-11-26T13:31:54.631Z,985.23
2018-11-26T13:33:04.779Z,985.24
2018-11-26T13:34:15.063Z,985.24
2018-11-26T13:35:25.135Z,985.27
2018-11-26T13:36:35.459Z,985.31
2018-11-26T13:37:45.518Z,985.31
2018-11-26T13:38:55.960Z,985.35
2018-11-26T13:40:05.773Z,985.36
2018-11-26T13:41:16.086Z,985.33
2018-11-26T13:42:25.977Z,985.35
2018-11-26T13:43:35.792Z,985.41
2018-11-26T13:44:45.931Z,985.43
2018-11-26T13:45:56.133Z,985.37
2018-11-26T13:47:05.949Z,985.41
2018-11-26T13:48:16.072Z,985.38
2018-11-26T13:49:26.410Z,985.4
2018-11-26T13:50:36.512Z,985.4
2018-11-26T13:51:46.837Z,985.4
2018-11-26T13:52:57.252Z,985.43
2018-11-26T13:54:07.836Z,985.45
2018-11-26T13:55:17.948Z,985.49
2018-11-26T13:56:28.032Z,985.47
2018-11-26T13:57:37.864Z,985.52
2018-11-26T13:58:47.936Z,985.5
2018-11-26T13:59:57.884Z,985.5
2018-11-26T14:01:09.457Z,985.54
2018-11-26T14:02:19.580Z,985.49
2018-11-26T14:03:29.686Z,985.53
2018-11-26T14:04:39.759Z,985.57
2018-11-26T14:05:49.889Z,985.57
2018-11-26T14:07:00.424Z,985.58
2018-11-26T14:08:10.461Z,985.56
2018-11-26T14:09:20.587Z,985.54
2018-11-26T14:10:30.675Z,985.62
2018-11-26T14:11:40.808Z,985.53
2018-11-26T14:12:50.882Z,985.63
2018-11-26T14:14:00.972Z,985.6
2018-11-26T14:15:10.797Z,985.61
2018-11-26T14:16:20.876Z,985.61
2018-11-26T14:17:31.010Z,985.66
2018-11-26T14:18:41.195Z,985.6
2018-11-26T14:19:51.269Z,985.6
2018-11-26T14:21:01.062Z,985.64
2018-11-26T14:22:11.143Z,985.68
2018-11-26T14:23:22.279Z,985.63
2018-11-26T14:24:32.375Z,985.65
2018-11-26T14:25:42.466Z,985.63
2018-11-26T14:26:52.574Z,985.69
2018-11-26T14:28:02.427Z,985.65
2018-11-26T14:29:12.789Z,985.66
2018-11-26T14:30:22.874Z,985.67
2018-11-26T14:31:32.946Z,985.63
2018-11-26T14:32:43.035Z,985.69
2018-11-26T14:33:53.137Z,985.7
2018-11-26T14:35:03.368Z,985.71
2018-11-26T14:36:12.927Z,985.69
2018-11-26T14:37:22.994Z,985.73
2018-11-26T14:38:33.080Z,985.78
2018-11-26T14:39:42.912Z,985.76
2018-11-26T14:40:53.035Z,985.79
2018-11-26T14:42:03.243Z,985.81
2018-11-26T14:43:13.538Z,985.87
2018-11-26T14:44:23.643Z,985.86
2018-11-26T14:45:33.824Z,985.85
2018-11-26T14:46:44.208Z,985.91
2018-11-26T14:47:54.019Z,985.9
2018-11-26T14:49:04.802Z,985.87
2018-11-26T14:50:14.873Z,985.89
2018-11-26T14:51:24.811Z,985.93
2018-11-26T14:52:34.677Z,985.9
2018-11-26T14:53:44.761Z,985.87
2018-11-26T14:54:54.870Z,985.88
2018-11-26T14:56:05.024Z,985.93
2018-11-26T14:57:15.134Z,985.89
2018-11-26T14:58:24.971Z,985.92
2018-11-26T14:59:35.082Z,985.88
2018-11-26T15:00:44.912Z,985.9
2018-11-26T15:01:54.757Z,985.91
2018-11-26T15:03:04.859Z,985.89
2018-11-26T15:04:14.926Z,985.9
2018-11-26T15:05:24.991Z,985.92
2018-11-26T15:06:35.061Z,985.95